sensor_id;sensor_type;location;lat;lon;timestamp;temperature;humidity
10276;DHT22;5183;51.190;6.820;2023-04-03T00:01:27;1.30;99.90
10276;DHT22;5183;51.190;6.820;2023-04-03T00:03:54;1.30;1.00
10276;DHT22;5183;51.190;6.820;2023-04-03T00:06:21;1.30;99.90
10276;DHT22;5183;51.190;6.820;2023-04-03T00:08:48;1.20;99.90
10276;DHT22;5183;51.190;6.820;2023-04-03T00:11:17;1.10;99.90
10276;DHT22;5183;51.190;6.820;2023-04-03T00:13:44;1.10;1.00
10276;DHT22;5183;51.190;6.820;2023-04-03T00:16:11;1.10;99.90
10276;DHT22;5183;51.190;6.820;2023-04-03T00:18:39;1.00;99.90
10276;DHT22;5183;51.190;6.820;2023-04-03T00:21:07;0.90;99.90
10276;DHT22;5183;51.190;6.820;2023-04-03T00:23:34;1.00;1.00
10276;DHT22;5183;51.190;6.820;2023-04-03T00:26:02;1.00;1.00
10276;DHT22;5183;51.190;6.820;2023-04-03T00:28:30;1.60;99.90
10276;DHT22;5183;51.190;6.820;2023-04-03T00:30:57;0.90;1.00
10276;DHT22;5183;51.190;6.820;2023-04-03T00:33:24;0.90;99.90
10276;DHT22;5183;51.190;6.820;2023-04-03T00:35:50;0.90;99.90
10276;DHT22;5183;51.190;6.820;2023-04-03T00:38:17;0.80;99.90
10276;DHT22;5183;51.190;6.820;2023-04-03T00:40:46;0.80;99.90
10276;DHT22;5183;51.190;6.820;2023-04-03T00:43:15;0.70;99.90
10276;DHT22;5183;51.190;6.820;2023-04-03T00:45:45;0.70;99.90
10276;DHT22;5183;51.190;6.820;2023-04-03T00:48:15;0.70;1.00
10276;DHT22;5183;51.190;6.820;2023-04-03T00:50:44;0.60;1.00
10276;DHT22;5183;51.190;6.820;2023-04-03T00:53:13;0.70;1.00
10276;DHT22;5183;51.190;6.820;2023-04-03T00:55:42;0.60;1.00
10276;DHT22;5183;51.190;6.820;2023-04-03T00:58:10;0.60;1.00
10276;DHT22;5183;51.190;6.820;2023-04-03T01:00:40;0.50;1.00
10276;DHT22;5183;51.190;6.820;2023-04-03T01:03:10;0.50;1.00
10276;DHT22;5183;51.190;6.820;2023-04-03T01:05:37;0.40;1.00
10276;DHT22;5183;51.190;6.820;2023-04-03T01:08:04;0.40;1.00
10276;DHT22;5183;51.190;6.820;2023-04-03T01:10:31;0.30;65.90
10276;DHT22;5183;51.190;6.820;2023-04-03T01:13:00;0.30;89.10
10276;DHT22;5183;51.190;6.820;2023-04-03T01:15:27;0.30;99.90
10276;DHT22;5183;51.190;6.820;2023-04-03T01:17:57;0.30;99.90
10276;DHT22;5183;51.190;6.820;2023-04-03T01:20:58;0.30;99.90
10276;DHT22;5183;51.190;6.820;2023-04-03T01:23:44;0.30;99.90
10276;DHT22;5183;51.190;6.820;2023-04-03T01:26:15;0.30;99.90
10276;DHT22;5183;51.190;6.820;2023-04-03T01:28:42;0.20;99.90
10276;DHT22;5183;51.190;6.820;2023-04-03T01:31:15;0.20;99.90
10276;DHT22;5183;51.190;6.820;2023-04-03T01:33:46;0.20;99.90
10276;DHT22;5183;51.190;6.820;2023-04-03T01:36:15;0.20;1.00
10276;DHT22;5183;51.190;6.820;2023-04-03T01:38:42;0.30;1.00
10276;DHT22;5183;51.190;6.820;2023-04-03T01:41:09;0.30;1.00
10276;DHT22;5183;51.190;6.820;2023-04-03T01:43:35;0.30;1.00
10276;DHT22;5183;51.190;6.820;2023-04-03T01:46:02;0.20;99.90
10276;DHT22;5183;51.190;6.820;2023-04-03T01:48:29;0.20;99.90
10276;DHT22;5183;51.190;6.820;2023-04-03T01:50:57;0.20;1.00
10276;DHT22;5183;51.190;6.820;2023-04-03T01:53:24;0.20;1.00
10276;DHT22;5183;51.190;6.820;2023-04-03T01:55:51;0.20;1.00
10276;DHT22;5183;51.190;6.820;2023-04-03T01:58:18;0.30;1.00
10276;DHT22;5183;51.190;6.820;2023-04-03T02:00:45;0.30;1.00
10276;DHT22;5183;51.190;6.820;2023-04-03T02:03:12;0.30;99.90
10276;DHT22;5183;51.190;6.820;2023-04-03T02:05:39;0.40;99.90
10276;DHT22;5183;51.190;6.820;2023-04-03T02:08:07;0.40;99.90
10276;DHT22;5183;51.190;6.820;2023-04-03T02:10:34;0.40;69.80
10276;DHT22;5183;51.190;6.820;2023-04-03T02:13:00;0.30;55.00
10276;DHT22;5183;51.190;6.820;2023-04-03T02:15:27;0.40;94.20
10276;DHT22;5183;51.190;6.820;2023-04-03T02:17:54;0.40;1.00
10276;DHT22;5183;51.190;6.820;2023-04-03T02:20:21;0.50;99.90
10276;DHT22;5183;51.190;6.820;2023-04-03T02:22:48;0.60;99.90
10276;DHT22;5183;51.190;6.820;2023-04-03T02:25:16;0.60;1.00
10276;DHT22;5183;51.190;6.820;2023-04-03T02:27:44;0.70;1.00
10276;DHT22;5183;51.190;6.820;2023-04-03T02:30:11;0.80;99.90
10276;DHT22;5183;51.190;6.820;2023-04-03T02:32:40;0.80;1.00
10276;DHT22;5183;51.190;6.820;2023-04-03T02:35:08;0.80;1.00
10276;DHT22;5183;51.190;6.820;2023-04-03T02:37:35;0.80;99.90
10276;DHT22;5183;51.190;6.820;2023-04-03T02:40:02;0.80;99.90
10276;DHT22;5183;51.190;6.820;2023-04-03T02:42:31;0.80;1.00
10276;DHT22;5183;51.190;6.820;2023-04-03T02:44:58;0.80;99.90
10276;DHT22;5183;51.190;6.820;2023-04-03T02:47:26;0.80;99.90
10276;DHT22;5183;51.190;6.820;2023-04-03T02:49:52;0.80;1.00
10276;DHT22;5183;51.190;6.820;2023-04-03T02:52:20;0.80;99.90
10276;DHT22;5183;51.190;6.820;2023-04-03T02:54:46;0.80;99.90
10276;DHT22;5183;51.190;6.820;2023-04-03T02:57:13;0.80;99.90
10276;DHT22;5183;51.190;6.820;2023-04-03T02:59:42;0.80;99.90
10276;DHT22;5183;51.190;6.820;2023-04-03T03:02:09;0.80;99.90
10276;DHT22;5183;51.190;6.820;2023-04-03T03:04:36;0.80;99.90
10276;DHT22;5183;51.190;6.820;2023-04-03T03:07:03;0.80;99.90
10276;DHT22;5183;51.190;6.820;2023-04-03T03:09:30;0.70;99.90
10276;DHT22;5183;51.190;6.820;2023-04-03T03:11:57;0.80;99.90
10276;DHT22;5183;51.190;6.820;2023-04-03T03:14:24;0.90;96.40
10276;DHT22;5183;51.190;6.820;2023-04-03T03:16:52;1.10;99.90
10276;DHT22;5183;51.190;6.820;2023-04-03T03:19:19;1.00;1.00
10276;DHT22;5183;51.190;6.820;2023-04-03T03:21:45;1.00;1.00
10276;DHT22;5183;51.190;6.820;2023-04-03T03:24:12;1.00;99.90
10276;DHT22;5183;51.190;6.820;2023-04-03T03:26:41;1.00;99.90
10276;DHT22;5183;51.190;6.820;2023-04-03T03:29:08;1.00;99.90
10276;DHT22;5183;51.190;6.820;2023-04-03T03:31:35;1.00;99.90
10276;DHT22;5183;51.190;6.820;2023-04-03T03:34:03;1.00;99.90
10276;DHT22;5183;51.190;6.820;2023-04-03T03:36:30;1.10;99.90
10276;DHT22;5183;51.190;6.820;2023-04-03T03:38:57;1.00;1.00
10276;DHT22;5183;51.190;6.820;2023-04-03T03:41:24;0.90;99.90
10276;DHT22;5183;51.190;6.820;2023-04-03T03:43:50;0.90;1.00
10276;DHT22;5183;51.190;6.820;2023-04-03T03:46:17;0.90;1.00
10276;DHT22;5183;51.190;6.820;2023-04-03T03:48:44;0.90;1.00
10276;DHT22;5183;51.190;6.820;2023-04-03T03:51:12;0.90;17.20
10276;DHT22;5183;51.190;6.820;2023-04-03T03:53:39;0.80;1.00
10276;DHT22;5183;51.190;6.820;2023-04-03T03:56:06;0.90;69.90
10276;DHT22;5183;51.190;6.820;2023-04-03T03:58:33;0.90;99.90
10276;DHT22;5183;51.190;6.820;2023-04-03T04:01:01;0.90;99.90
10276;DHT22;5183;51.190;6.820;2023-04-03T04:03:28;0.90;1.00
10276;DHT22;5183;51.190;6.820;2023-04-03T04:05:55;0.90;1.00
10276;DHT22;5183;51.190;6.820;2023-04-03T04:08:23;0.90;1.00
10276;DHT22;5183;51.190;6.820;2023-04-03T04:10:50;0.90;1.00
10276;DHT22;5183;51.190;6.820;2023-04-03T04:13:17;0.80;1.00
10276;DHT22;5183;51.190;6.820;2023-04-03T04:15:44;0.80;1.00
10276;DHT22;5183;51.190;6.820;2023-04-03T04:18:11;0.80;99.90
10276;DHT22;5183;51.190;6.820;2023-04-03T04:20:38;0.80;1.00
10276;DHT22;5183;51.190;6.820;2023-04-03T04:23:05;0.80;1.00
10276;DHT22;5183;51.190;6.820;2023-04-03T04:25:33;0.80;99.90
10276;DHT22;5183;51.190;6.820;2023-04-03T04:28:00;0.80;99.90
10276;DHT22;5183;51.190;6.820;2023-04-03T04:30:26;0.80;1.00
10276;DHT22;5183;51.190;6.820;2023-04-03T04:32:54;0.70;99.90
10276;DHT22;5183;51.190;6.820;2023-04-03T04:35:23;0.70;1.00
10276;DHT22;5183;51.190;6.820;2023-04-03T04:37:50;0.60;99.90
10276;DHT22;5183;51.190;6.820;2023-04-03T04:40:18;0.70;1.00
10276;DHT22;5183;51.190;6.820;2023-04-03T04:42:46;0.70;1.00
10276;DHT22;5183;51.190;6.820;2023-04-03T04:45:13;0.70;30.80
10276;DHT22;5183;51.190;6.820;2023-04-03T04:47:40;0.50;99.90
10276;DHT22;5183;51.190;6.820;2023-04-03T04:50:08;0.60;99.90
10276;DHT22;5183;51.190;6.820;2023-04-03T04:52:35;0.60;99.90
10276;DHT22;5183;51.190;6.820;2023-04-03T04:55:02;0.50;1.00
10276;DHT22;5183;51.190;6.820;2023-04-03T04:57:29;0.60;1.00
10276;DHT22;5183;51.190;6.820;2023-04-03T04:59:57;0.60;99.90
10276;DHT22;5183;51.190;6.820;2023-04-03T05:02:24;0.60;99.90
10276;DHT22;5183;51.190;6.820;2023-04-03T05:04:51;0.60;99.90
10276;DHT22;5183;51.190;6.820;2023-04-03T05:07:18;0.60;33.40
10276;DHT22;5183;51.190;6.820;2023-04-03T05:09:44;0.60;1.00
10276;DHT22;5183;51.190;6.820;2023-04-03T05:12:11;0.50;1.00
10276;DHT22;5183;51.190;6.820;2023-04-03T05:14:38;0.50;99.90
10276;DHT22;5183;51.190;6.820;2023-04-03T05:17:06;0.50;99.90
10276;DHT22;5183;51.190;6.820;2023-04-03T05:19:33;0.60;15.70
10276;DHT22;5183;51.190;6.820;2023-04-03T05:22:00;0.60;99.90
10276;DHT22;5183;51.190;6.820;2023-04-03T05:24:27;0.60;1.00
10276;DHT22;5183;51.190;6.820;2023-04-03T05:26:53;0.70;1.00
10276;DHT22;5183;51.190;6.820;2023-04-03T05:29:20;0.70;99.90
10276;DHT22;5183;51.190;6.820;2023-04-03T05:31:49;0.70;99.90
10276;DHT22;5183;51.190;6.820;2023-04-03T05:34:17;0.70;99.90
10276;DHT22;5183;51.190;6.820;2023-04-03T05:36:44;0.70;99.90
10276;DHT22;5183;51.190;6.820;2023-04-03T05:39:10;0.80;99.90
10276;DHT22;5183;51.190;6.820;2023-04-03T05:41:37;0.70;99.90
10276;DHT22;5183;51.190;6.820;2023-04-03T05:44:04;0.80;1.00
10276;DHT22;5183;51.190;6.820;2023-04-03T05:46:31;0.70;99.90
10276;DHT22;5183;51.190;6.820;2023-04-03T05:48:58;0.70;99.90
10276;DHT22;5183;51.190;6.820;2023-04-03T05:51:33;0.80;83.70
10276;DHT22;5183;51.190;6.820;2023-04-03T05:54:06;0.90;42.60
10276;DHT22;5183;51.190;6.820;2023-04-03T05:56:33;0.90;22.80
10276;DHT22;5183;51.190;6.820;2023-04-03T05:59:00;1.00;1.00
10276;DHT22;5183;51.190;6.820;2023-04-03T06:01:27;1.00;1.00
10276;DHT22;5183;51.190;6.820;2023-04-03T06:03:53;1.00;1.00
10276;DHT22;5183;51.190;6.820;2023-04-03T06:06:21;1.10;1.00
10276;DHT22;5183;51.190;6.820;2023-04-03T06:08:49;1.10;1.00
10276;DHT22;5183;51.190;6.820;2023-04-03T06:11:16;1.10;99.90
10276;DHT22;5183;51.190;6.820;2023-04-03T06:13:43;1.10;99.90
10276;DHT22;5183;51.190;6.820;2023-04-03T06:16:12;1.20;1.00
10276;DHT22;5183;51.190;6.820;2023-04-03T06:18:40;1.30;1.00
10276;DHT22;5183;51.190;6.820;2023-04-03T06:21:07;1.30;1.00
10276;DHT22;5183;51.190;6.820;2023-04-03T06:23:34;1.30;1.00
10276;DHT22;5183;51.190;6.820;2023-04-03T06:26:02;1.40;1.00
10276;DHT22;5183;51.190;6.820;2023-04-03T06:28:29;1.50;99.90
10276;DHT22;5183;51.190;6.820;2023-04-03T06:30:56;1.50;1.00
10276;DHT22;5183;51.190;6.820;2023-04-03T06:33:23;1.60;1.00
10276;DHT22;5183;51.190;6.820;2023-04-03T06:35:52;1.60;1.00
10276;DHT22;5183;51.190;6.820;2023-04-03T06:38:22;1.60;99.90
10276;DHT22;5183;51.190;6.820;2023-04-03T06:40:49;1.60;99.90
10276;DHT22;5183;51.190;6.820;2023-04-03T06:43:18;1.60;1.00
10276;DHT22;5183;51.190;6.820;2023-04-03T06:45:46;1.80;75.10
10276;DHT22;5183;51.190;6.820;2023-04-03T06:48:13;1.70;1.00
10276;DHT22;5183;51.190;6.820;2023-04-03T06:50:39;1.80;1.00
10276;DHT22;5183;51.190;6.820;2023-04-03T06:53:06;1.80;1.00
10276;DHT22;5183;51.190;6.820;2023-04-03T06:55:33;1.80;99.90
10276;DHT22;5183;51.190;6.820;2023-04-03T06:58:01;1.80;1.00
10276;DHT22;5183;51.190;6.820;2023-04-03T07:00:30;1.80;98.90
10276;DHT22;5183;51.190;6.820;2023-04-03T07:02:57;1.80;1.00
10276;DHT22;5183;51.190;6.820;2023-04-03T07:05:24;1.90;1.00
10276;DHT22;5183;51.190;6.820;2023-04-03T07:07:51;1.90;1.00
10276;DHT22;5183;51.190;6.820;2023-04-03T07:10:18;2.00;99.90
10276;DHT22;5183;51.190;6.820;2023-04-03T07:12:45;2.00;99.90
10276;DHT22;5183;51.190;6.820;2023-04-03T07:15:12;2.10;1.00
10276;DHT22;5183;51.190;6.820;2023-04-03T07:17:41;2.20;99.90
10276;DHT22;5183;51.190;6.820;2023-04-03T07:20:08;2.30;1.00
10276;DHT22;5183;51.190;6.820;2023-04-03T07:22:36;2.20;1.00
10276;DHT22;5183;51.190;6.820;2023-04-03T07:25:03;2.30;75.70
10276;DHT22;5183;51.190;6.820;2023-04-03T07:27:32;2.30;99.90
10276;DHT22;5183;51.190;6.820;2023-04-03T07:29:59;2.30;99.90
10276;DHT22;5183;51.190;6.820;2023-04-03T07:32:26;2.40;99.90
10276;DHT22;5183;51.190;6.820;2023-04-03T07:34:54;2.40;10.90
10276;DHT22;5183;51.190;6.820;2023-04-03T07:37:21;2.40;1.00
10276;DHT22;5183;51.190;6.820;2023-04-03T07:39:48;2.50;1.00
10276;DHT22;5183;51.190;6.820;2023-04-03T07:42:15;2.60;1.00
10276;DHT22;5183;51.190;6.820;2023-04-03T07:44:42;2.60;1.00
10276;DHT22;5183;51.190;6.820;2023-04-03T07:47:09;2.60;1.00
10276;DHT22;5183;51.190;6.820;2023-04-03T07:49:35;2.70;1.00
10276;DHT22;5183;51.190;6.820;2023-04-03T07:52:06;2.90;99.90
10276;DHT22;5183;51.190;6.820;2023-04-03T07:54:34;2.90;99.90
10276;DHT22;5183;51.190;6.820;2023-04-03T07:57:01;3.00;99.90
10276;DHT22;5183;51.190;6.820;2023-04-03T07:59:28;3.00;99.90
10276;DHT22;5183;51.190;6.820;2023-04-03T08:01:55;3.10;98.30
10276;DHT22;5183;51.190;6.820;2023-04-03T08:04:22;3.10;99.90
10276;DHT22;5183;51.190;6.820;2023-04-03T08:06:49;3.10;73.20
10276;DHT22;5183;51.190;6.820;2023-04-03T08:09:18;3.20;99.90
10276;DHT22;5183;51.190;6.820;2023-04-03T08:11:45;3.30;70.00
10276;DHT22;5183;51.190;6.820;2023-04-03T08:14:12;3.40;24.70
10276;DHT22;5183;51.190;6.820;2023-04-03T08:16:42;3.40;1.00
10276;DHT22;5183;51.190;6.820;2023-04-03T08:19:09;3.60;1.00
10276;DHT22;5183;51.190;6.820;2023-04-03T08:21:39;3.60;1.00
10276;DHT22;5183;51.190;6.820;2023-04-03T08:24:07;3.70;1.00
10276;DHT22;5183;51.190;6.820;2023-04-03T08:26:35;3.80;99.90
10276;DHT22;5183;51.190;6.820;2023-04-03T08:29:02;3.80;99.90
10276;DHT22;5183;51.190;6.820;2023-04-03T08:31:30;3.80;99.90
10276;DHT22;5183;51.190;6.820;2023-04-03T08:33:56;3.90;69.00
10276;DHT22;5183;51.190;6.820;2023-04-03T08:36:25;3.90;53.50
10276;DHT22;5183;51.190;6.820;2023-04-03T08:38:53;4.10;1.00
10276;DHT22;5183;51.190;6.820;2023-04-03T08:41:27;4.10;1.00
10276;DHT22;5183;51.190;6.820;2023-04-03T08:44:05;4.10;1.00
10276;DHT22;5183;51.190;6.820;2023-04-03T08:46:43;4.30;1.00
10276;DHT22;5183;51.190;6.820;2023-04-03T08:49:19;4.30;1.00
10276;DHT22;5183;51.190;6.820;2023-04-03T08:51:49;4.40;1.00
10276;DHT22;5183;51.190;6.820;2023-04-03T08:54:24;4.40;1.00
10276;DHT22;5183;51.190;6.820;2023-04-03T08:56:52;4.50;1.00
10276;DHT22;5183;51.190;6.820;2023-04-03T08:59:26;4.60;1.00
10276;DHT22;5183;51.190;6.820;2023-04-03T09:01:54;4.50;1.00
10276;DHT22;5183;51.190;6.820;2023-04-03T09:04:22;4.60;1.00
10276;DHT22;5183;51.190;6.820;2023-04-03T09:06:54;4.70;1.00
10276;DHT22;5183;51.190;6.820;2023-04-03T09:09:30;4.80;1.00
10276;DHT22;5183;51.190;6.820;2023-04-03T09:12:04;4.80;1.00
10276;DHT22;5183;51.190;6.820;2023-04-03T09:14:39;4.90;1.00
10276;DHT22;5183;51.190;6.820;2023-04-03T09:17:14;4.90;1.00
10276;DHT22;5183;51.190;6.820;2023-04-03T09:19:50;4.90;1.00
10276;DHT22;5183;51.190;6.820;2023-04-03T09:22:21;5.00;1.00
10276;DHT22;5183;51.190;6.820;2023-04-03T09:24:57;5.00;1.00
10276;DHT22;5183;51.190;6.820;2023-04-03T09:27:25;5.10;1.00
10276;DHT22;5183;51.190;6.820;2023-04-03T09:29:55;5.30;1.00
10276;DHT22;5183;51.190;6.820;2023-04-03T09:32:27;5.10;1.00
10276;DHT22;5183;51.190;6.820;2023-04-03T09:34:57;5.10;1.00
10276;DHT22;5183;51.190;6.820;2023-04-03T09:37:37;5.30;1.00
10276;DHT22;5183;51.190;6.820;2023-04-03T09:40:05;5.30;1.00
10276;DHT22;5183;51.190;6.820;2023-04-03T09:42:33;5.30;1.00
10276;DHT22;5183;51.190;6.820;2023-04-03T09:45:22;5.50;1.00
10276;DHT22;5183;51.190;6.820;2023-04-03T09:48:04;5.50;1.00
10276;DHT22;5183;51.190;6.820;2023-04-03T09:50:32;5.50;1.00
10276;DHT22;5183;51.190;6.820;2023-04-03T09:53:05;5.60;1.00
10276;DHT22;5183;51.190;6.820;2023-04-03T09:55:32;5.80;1.00
10276;DHT22;5183;51.190;6.820;2023-04-03T09:58:01;5.90;1.00
10276;DHT22;5183;51.190;6.820;2023-04-03T10:00:31;6.10;1.00
10276;DHT22;5183;51.190;6.820;2023-04-03T10:03:00;6.10;99.90
10276;DHT22;5183;51.190;6.820;2023-04-03T10:05:31;6.20;1.00
10276;DHT22;5183;51.190;6.820;2023-04-03T10:08:20;6.20;99.90
10276;DHT22;5183;51.190;6.820;2023-04-03T10:11:06;6.30;99.90
10276;DHT22;5183;51.190;6.820;2023-04-03T10:13:33;6.40;99.90
10276;DHT22;5183;51.190;6.820;2023-04-03T10:16:06;6.40;99.90
10276;DHT22;5183;51.190;6.820;2023-04-03T10:18:40;6.50;99.90
10276;DHT22;5183;51.190;6.820;2023-04-03T10:21:14;6.60;99.90
10276;DHT22;5183;51.190;6.820;2023-04-03T10:23:45;6.60;99.90
10276;DHT22;5183;51.190;6.820;2023-04-03T10:26:20;6.70;99.90
10276;DHT22;5183;51.190;6.820;2023-04-03T10:28:57;6.80;99.90
10276;DHT22;5183;51.190;6.820;2023-04-03T10:31:33;6.90;99.90
10276;DHT22;5183;51.190;6.820;2023-04-03T10:34:05;7.00;99.90
10276;DHT22;5183;51.190;6.820;2023-04-03T10:36:41;7.10;99.90
10276;DHT22;5183;51.190;6.820;2023-04-03T10:39:19;7.20;99.90
10276;DHT22;5183;51.190;6.820;2023-04-03T10:41:56;7.30;99.90
10276;DHT22;5183;51.190;6.820;2023-04-03T10:44:35;7.30;99.90
10276;DHT22;5183;51.190;6.820;2023-04-03T10:47:11;7.50;99.90
10276;DHT22;5183;51.190;6.820;2023-04-03T10:49:48;7.70;99.90
10276;DHT22;5183;51.190;6.820;2023-04-03T10:52:21;7.70;99.90
10276;DHT22;5183;51.190;6.820;2023-04-03T10:54:58;7.80;1.00
10276;DHT22;5183;51.190;6.820;2023-04-03T10:57:26;7.80;1.00
10276;DHT22;5183;51.190;6.820;2023-04-03T10:59:57;8.00;1.00
10276;DHT22;5183;51.190;6.820;2023-04-03T11:02:28;8.10;1.00
10276;DHT22;5183;51.190;6.820;2023-04-03T11:05:00;8.30;1.00
10276;DHT22;5183;51.190;6.820;2023-04-03T11:07:32;8.30;1.00
10276;DHT22;5183;51.190;6.820;2023-04-03T11:10:03;8.30;1.00
10276;DHT22;5183;51.190;6.820;2023-04-03T11:12:38;8.40;1.00
10276;DHT22;5183;51.190;6.820;2023-04-03T11:15:13;8.50;1.00
10276;DHT22;5183;51.190;6.820;2023-04-03T11:17:46;8.60;1.00
10276;DHT22;5183;51.190;6.820;2023-04-03T11:20:18;8.60;1.00
10276;DHT22;5183;51.190;6.820;2023-04-03T11:22:50;8.90;1.00
10276;DHT22;5183;51.190;6.820;2023-04-03T11:25:20;9.00;1.00
10276;DHT22;5183;51.190;6.820;2023-04-03T11:27:51;9.00;1.20
10276;DHT22;5183;51.190;6.820;2023-04-03T11:30:23;9.20;1.00
10276;DHT22;5183;51.190;6.820;2023-04-03T11:33:17;9.20;1.00
10276;DHT22;5183;51.190;6.820;2023-04-03T11:35:50;9.40;1.50
10276;DHT22;5183;51.190;6.820;2023-04-03T11:38:22;9.40;1.00
10276;DHT22;5183;51.190;6.820;2023-04-03T11:40:52;9.50;1.00
10276;DHT22;5183;51.190;6.820;2023-04-03T11:43:24;9.60;1.00
10276;DHT22;5183;51.190;6.820;2023-04-03T11:45:57;9.70;1.00
10276;DHT22;5183;51.190;6.820;2023-04-03T11:48:45;9.80;1.00
10276;DHT22;5183;51.190;6.820;2023-04-03T11:51:39;9.90;1.00
10276;DHT22;5183;51.190;6.820;2023-04-03T11:54:45;10.00;1.00
10276;DHT22;5183;51.190;6.820;2023-04-03T11:57:43;10.20;1.00
10276;DHT22;5183;51.190;6.820;2023-04-03T12:06:53;10.50;1.00
10276;DHT22;5183;51.190;6.820;2023-04-03T12:12:26;10.80;1.00
10276;DHT22;5183;51.190;6.820;2023-04-03T12:14:54;10.80;1.00
10276;DHT22;5183;51.190;6.820;2023-04-03T12:17:25;10.90;1.00
10276;DHT22;5183;51.190;6.820;2023-04-03T12:19:53;11.10;23.00
10276;DHT22;5183;51.190;6.820;2023-04-03T12:22:21;11.10;58.20
10276;DHT22;5183;51.190;6.820;2023-04-03T12:24:50;11.20;99.90
10276;DHT22;5183;51.190;6.820;2023-04-03T12:27:26;11.40;99.90
10276;DHT22;5183;51.190;6.820;2023-04-03T12:29:58;11.50;99.90
10276;DHT22;5183;51.190;6.820;2023-04-03T12:32:40;11.50;1.00
10276;DHT22;5183;51.190;6.820;2023-04-03T12:35:16;11.60;1.00
10276;DHT22;5183;51.190;6.820;2023-04-03T12:38:15;11.60;1.00
10276;DHT22;5183;51.190;6.820;2023-04-03T12:40:49;11.70;1.00
10276;DHT22;5183;51.190;6.820;2023-04-03T12:43:34;11.70;1.00
10276;DHT22;5183;51.190;6.820;2023-04-03T12:46:08;11.70;1.00
10276;DHT22;5183;51.190;6.820;2023-04-03T12:48:39;11.80;1.00
10276;DHT22;5183;51.190;6.820;2023-04-03T12:51:14;11.80;1.00
10276;DHT22;5183;51.190;6.820;2023-04-03T12:53:43;11.80;1.00
10276;DHT22;5183;51.190;6.820;2023-04-03T12:56:22;11.80;1.00
10276;DHT22;5183;51.190;6.820;2023-04-03T12:58:51;12.00;1.00
10276;DHT22;5183;51.190;6.820;2023-04-03T13:01:21;12.20;1.00
10276;DHT22;5183;51.190;6.820;2023-04-03T13:03:50;12.40;1.00
10276;DHT22;5183;51.190;6.820;2023-04-03T13:06:19;12.40;1.00
10276;DHT22;5183;51.190;6.820;2023-04-03T13:08:53;12.40;1.00
10276;DHT22;5183;51.190;6.820;2023-04-03T13:11:23;12.30;1.00
10276;DHT22;5183;51.190;6.820;2023-04-03T13:13:55;12.40;1.00
10276;DHT22;5183;51.190;6.820;2023-04-03T13:16:22;12.30;1.00
10276;DHT22;5183;51.190;6.820;2023-04-03T13:18:51;12.40;1.00
10276;DHT22;5183;51.190;6.820;2023-04-03T13:21:20;12.30;1.00
10276;DHT22;5183;51.190;6.820;2023-04-03T13:23:52;12.40;1.00
10276;DHT22;5183;51.190;6.820;2023-04-03T13:26:27;12.20;1.00
10276;DHT22;5183;51.190;6.820;2023-04-03T13:28:57;12.30;1.00
10276;DHT22;5183;51.190;6.820;2023-04-03T13:31:28;12.40;1.00
10276;DHT22;5183;51.190;6.820;2023-04-03T13:34:02;12.40;1.00
10276;DHT22;5183;51.190;6.820;2023-04-03T13:36:35;12.60;1.00
10276;DHT22;5183;51.190;6.820;2023-04-03T13:39:06;12.60;1.00
10276;DHT22;5183;51.190;6.820;2023-04-03T13:41:35;12.70;1.00
10276;DHT22;5183;51.190;6.820;2023-04-03T13:44:17;12.70;1.00
10276;DHT22;5183;51.190;6.820;2023-04-03T13:46:44;12.80;1.00
10276;DHT22;5183;51.190;6.820;2023-04-03T13:49:20;12.80;1.00
10276;DHT22;5183;51.190;6.820;2023-04-03T13:51:47;12.90;1.00
10276;DHT22;5183;51.190;6.820;2023-04-03T13:54:20;13.10;1.00
10276;DHT22;5183;51.190;6.820;2023-04-03T13:56:53;13.10;1.00
10276;DHT22;5183;51.190;6.820;2023-04-03T13:59:24;12.80;1.00
10276;DHT22;5183;51.190;6.820;2023-04-03T14:01:53;12.90;1.00
10276;DHT22;5183;51.190;6.820;2023-04-03T14:04:23;12.80;1.00
10276;DHT22;5183;51.190;6.820;2023-04-03T14:06:51;12.80;1.00
10276;DHT22;5183;51.190;6.820;2023-04-03T14:09:20;12.70;1.00
10276;DHT22;5183;51.190;6.820;2023-04-03T14:11:50;12.80;1.00
10276;DHT22;5183;51.190;6.820;2023-04-03T14:14:20;12.60;1.00
10276;DHT22;5183;51.190;6.820;2023-04-03T14:16:51;12.70;1.00
10276;DHT22;5183;51.190;6.820;2023-04-03T14:19:22;13.00;10.80
10276;DHT22;5183;51.190;6.820;2023-04-03T14:21:49;13.00;1.00
10276;DHT22;5183;51.190;6.820;2023-04-03T14:24:19;13.10;3.50
10276;DHT22;5183;51.190;6.820;2023-04-03T14:26:47;13.30;5.40
10276;DHT22;5183;51.190;6.820;2023-04-03T14:29:15;13.30;1.00
10276;DHT22;5183;51.190;6.820;2023-04-03T14:31:44;13.10;1.00
10276;DHT22;5183;51.190;6.820;2023-04-03T14:34:11;13.20;1.00
10276;DHT22;5183;51.190;6.820;2023-04-03T14:36:39;13.10;1.00
10276;DHT22;5183;51.190;6.820;2023-04-03T14:39:10;13.30;1.00
10276;DHT22;5183;51.190;6.820;2023-04-03T14:41:38;13.00;1.00
10276;DHT22;5183;51.190;6.820;2023-04-03T14:44:05;13.20;1.00
10276;DHT22;5183;51.190;6.820;2023-04-03T14:46:34;13.20;1.00
10276;DHT22;5183;51.190;6.820;2023-04-03T14:49:02;13.20;1.00
10276;DHT22;5183;51.190;6.820;2023-04-03T14:51:33;13.20;1.00
10276;DHT22;5183;51.190;6.820;2023-04-03T14:54:00;13.10;1.00
10276;DHT22;5183;51.190;6.820;2023-04-03T14:56:28;13.00;1.00
10276;DHT22;5183;51.190;6.820;2023-04-03T14:58:59;13.10;1.00
10276;DHT22;5183;51.190;6.820;2023-04-03T15:01:27;12.90;1.00
10276;DHT22;5183;51.190;6.820;2023-04-03T15:03:54;13.00;1.00
10276;DHT22;5183;51.190;6.820;2023-04-03T15:06:23;13.00;1.00
10276;DHT22;5183;51.190;6.820;2023-04-03T15:08:51;13.00;1.00
10276;DHT22;5183;51.190;6.820;2023-04-03T15:11:18;13.30;7.90
10276;DHT22;5183;51.190;6.820;2023-04-03T15:13:45;13.40;1.00
10276;DHT22;5183;51.190;6.820;2023-04-03T15:16:16;13.30;1.00
10276;DHT22;5183;51.190;6.820;2023-04-03T15:18:45;13.40;6.10
10276;DHT22;5183;51.190;6.820;2023-04-03T15:21:13;13.50;13.10
10276;DHT22;5183;51.190;6.820;2023-04-03T15:23:40;13.30;1.00
10276;DHT22;5183;51.190;6.820;2023-04-03T15:26:08;13.30;3.40
10276;DHT22;5183;51.190;6.820;2023-04-03T15:28:38;13.40;1.00
10276;DHT22;5183;51.190;6.820;2023-04-03T15:31:06;13.40;1.00
10276;DHT22;5183;51.190;6.820;2023-04-03T15:33:35;13.20;1.00
10276;DHT22;5183;51.190;6.820;2023-04-03T15:36:03;13.20;1.00
10276;DHT22;5183;51.190;6.820;2023-04-03T15:38:31;13.40;4.40
10276;DHT22;5183;51.190;6.820;2023-04-03T15:40:58;13.40;4.90
10276;DHT22;5183;51.190;6.820;2023-04-03T15:43:24;13.40;1.00
10276;DHT22;5183;51.190;6.820;2023-04-03T15:45:52;13.40;4.20
10276;DHT22;5183;51.190;6.820;2023-04-03T15:48:19;13.40;1.00
10276;DHT22;5183;51.190;6.820;2023-04-03T15:50:47;13.40;1.00
10276;DHT22;5183;51.190;6.820;2023-04-03T15:53:14;13.30;1.00
10276;DHT22;5183;51.190;6.820;2023-04-03T15:55:40;13.40;1.00
10276;DHT22;5183;51.190;6.820;2023-04-03T15:58:08;13.40;1.00
10276;DHT22;5183;51.190;6.820;2023-04-03T16:00:36;13.10;1.00
10276;DHT22;5183;51.190;6.820;2023-04-03T16:03:05;13.10;1.00
10276;DHT22;5183;51.190;6.820;2023-04-03T16:05:35;12.90;1.00
10276;DHT22;5183;51.190;6.820;2023-04-03T16:08:04;13.10;1.00
10276;DHT22;5183;51.190;6.820;2023-04-03T16:10:33;12.70;2.70
10276;DHT22;5183;51.190;6.820;2023-04-03T16:13:03;12.70;9.30
10276;DHT22;5183;51.190;6.820;2023-04-03T16:15:31;12.80;27.10
10276;DHT22;5183;51.190;6.820;2023-04-03T16:17:58;12.70;19.80
10276;DHT22;5183;51.190;6.820;2023-04-03T16:20:26;12.70;45.60
10276;DHT22;5183;51.190;6.820;2023-04-03T16:22:53;12.70;33.80
10276;DHT22;5183;51.190;6.820;2023-04-03T16:25:24;12.70;60.70
10276;DHT22;5183;51.190;6.820;2023-04-03T16:27:51;12.90;53.70
10276;DHT22;5183;51.190;6.820;2023-04-03T16:30:18;12.70;53.80
10276;DHT22;5183;51.190;6.820;2023-04-03T16:32:45;12.70;57.00